sensor_id;sensor_type;location;lat;lon;timestamp;P1;durP1;ratioP1;P2;durP2;ratioP2
27863;SDS011;15980;51.092;13.916;2023-10-31T00:06:11;8.57;;;6.68;;
27863;SDS011;15980;51.092;13.916;2023-10-31T00:16:11;10.73;;;6.50;;
27863;SDS011;15980;51.092;13.916;2023-10-31T00:26:11;13.20;;;8.02;;
27863;SDS011;15980;51.092;13.916;2023-10-31T00:36:12;12.55;;;7.90;;
27863;SDS011;15980;51.092;13.916;2023-10-31T00:46:13;13.55;;;7.00;;
27863;SDS011;15980;51.092;13.916;2023-10-31T00:56:13;13.15;;;8.10;;
27863;SDS011;15980;51.092;13.916;2023-10-31T01:06:13;13.85;;;6.85;;
27863;SDS011;15980;51.092;13.916;2023-10-31T01:16:14;16.05;;;8.05;;
27863;SDS011;15980;51.092;13.916;2023-10-31T01:26:14;12.02;;;7.30;;
27863;SDS011;15980;51.092;13.916;2023-10-31T01:36:14;14.60;;;7.53;;
27863;SDS011;15980;51.092;13.916;2023-10-31T01:46:14;16.48;;;8.85;;
27863;SDS011;15980;51.092;13.916;2023-10-31T01:56:15;17.42;;;7.78;;
27863;SDS011;15980;51.092;13.916;2023-10-31T02:06:15;13.20;;;8.10;;
27863;SDS011;15980;51.092;13.916;2023-10-31T02:16:16;14.50;;;8.57;;
27863;SDS011;15980;51.092;13.916;2023-10-31T02:26:16;16.02;;;10.18;;
27863;SDS011;15980;51.092;13.916;2023-10-31T02:36:16;20.55;;;10.15;;
27863;SDS011;15980;51.092;13.916;2023-10-31T02:46:18;16.30;;;11.10;;
27863;SDS011;15980;51.092;13.916;2023-10-31T02:56:18;20.30;;;10.25;;
27863;SDS011;15980;51.092;13.916;2023-10-31T03:06:19;16.60;;;11.15;;
27863;SDS011;15980;51.092;13.916;2023-10-31T03:16:19;22.45;;;13.55;;
27863;SDS011;15980;51.092;13.916;2023-10-31T03:26:20;25.70;;;14.05;;
27863;SDS011;15980;51.092;13.916;2023-10-31T03:36:20;30.67;;;15.75;;
27863;SDS011;15980;51.092;13.916;2023-10-31T03:46:20;29.58;;;15.98;;
27863;SDS011;15980;51.092;13.916;2023-10-31T03:56:20;27.40;;;14.30;;
27863;SDS011;15980;51.092;13.916;2023-10-31T04:06:21;22.25;;;11.65;;
27863;SDS011;15980;51.092;13.916;2023-10-31T04:16:21;22.23;;;12.90;;
27863;SDS011;15980;51.092;13.916;2023-10-31T04:26:21;19.75;;;11.35;;
27863;SDS011;15980;51.092;13.916;2023-10-31T04:36:21;23.33;;;11.05;;
27863;SDS011;15980;51.092;13.916;2023-10-31T04:46:22;18.17;;;10.07;;
27863;SDS011;15980;51.092;13.916;2023-10-31T04:56:24;13.77;;;7.50;;
27863;SDS011;15980;51.092;13.916;2023-10-31T05:06:24;11.80;;;6.05;;
27863;SDS011;15980;51.092;13.916;2023-10-31T05:16:24;9.93;;;6.22;;
27863;SDS011;15980;51.092;13.916;2023-10-31T05:26:25;7.65;;;4.78;;
27863;SDS011;15980;51.092;13.916;2023-10-31T05:36:25;7.60;;;4.72;;
27863;SDS011;15980;51.092;13.916;2023-10-31T05:46:26;22.42;;;14.15;;
27863;SDS011;15980;51.092;13.916;2023-10-31T05:56:26;13.50;;;10.70;;
27863;SDS011;15980;51.092;13.916;2023-10-31T06:06:26;10.65;;;8.45;;
27863;SDS011;15980;51.092;13.916;2023-10-31T06:16:27;23.40;;;18.33;;
27863;SDS011;15980;51.092;13.916;2023-10-31T06:26:27;8.65;;;6.78;;
27863;SDS011;15980;51.092;13.916;2023-10-31T06:36:27;6.82;;;3.85;;
27863;SDS011;15980;51.092;13.916;2023-10-31T06:46:28;6.43;;;2.92;;
27863;SDS011;15980;51.092;13.916;2023-10-31T06:56:28;1.15;;;0.70;;
27863;SDS011;15980;51.092;13.916;2023-10-31T07:06:28;1.75;;;0.70;;
27863;SDS011;15980;51.092;13.916;2023-10-31T07:16:29;0.70;;;0.65;;
27863;SDS011;15980;51.092;13.916;2023-10-31T07:26:29;0.70;;;0.70;;
27863;SDS011;15980;51.092;13.916;2023-10-31T07:36:29;1.77;;;0.77;;
27863;SDS011;15980;51.092;13.916;2023-10-31T07:46:30;0.77;;;0.55;;
27863;SDS011;15980;51.092;13.916;2023-10-31T07:56:30;2.17;;;0.60;;
27863;SDS011;15980;51.092;13.916;2023-10-31T08:06:30;1.08;;;0.60;;
27863;SDS011;15980;51.092;13.916;2023-10-31T08:16:30;0.65;;;0.60;;
27863;SDS011;15980;51.092;13.916;2023-10-31T08:26:31;0.35;;;0.35;;
27863;SDS011;15980;51.092;13.916;2023-10-31T08:36:32;0.82;;;0.50;;
27863;SDS011;15980;51.092;13.916;2023-10-31T08:46:32;0.55;;;0.40;;
27863;SDS011;15980;51.092;13.916;2023-10-31T08:56:32;2.58;;;0.95;;
27863;SDS011;15980;51.092;13.916;2023-10-31T09:06:33;4.40;;;1.58;;
27863;SDS011;15980;51.092;13.916;2023-10-31T09:16:33;3.92;;;0.50;;
27863;SDS011;15980;51.092;13.916;2023-10-31T09:26:33;2.35;;;0.38;;
27863;SDS011;15980;51.092;13.916;2023-10-31T09:36:34;1.17;;;0.95;;
27863;SDS011;15980;51.092;13.916;2023-10-31T09:46:34;3.28;;;1.77;;
27863;SDS011;15980;51.092;13.916;2023-10-31T09:56:35;13.93;;;6.95;;
27863;SDS011;15980;51.092;13.916;2023-10-31T10:06:35;5.40;;;2.97;;
27863;SDS011;15980;51.092;13.916;2023-10-31T10:16:40;9.02;;;3.85;;
27863;SDS011;15980;51.092;13.916;2023-10-31T10:26:40;4.95;;;2.38;;
27863;SDS011;15980;51.092;13.916;2023-10-31T10:36:40;1.73;;;1.20;;
27863;SDS011;15980;51.092;13.916;2023-10-31T10:46:48;2.75;;;0.93;;
27863;SDS011;15980;51.092;13.916;2023-10-31T10:56:54;1.33;;;0.50;;
27863;SDS011;15980;51.092;13.916;2023-10-31T11:07:03;1.92;;;0.70;;
27863;SDS011;15980;51.092;13.916;2023-10-31T11:17:11;0.93;;;0.60;;
27863;SDS011;15980;51.092;13.916;2023-10-31T11:27:22;0.43;;;0.20;;
27863;SDS011;15980;51.092;13.916;2023-10-31T11:37:24;0.88;;;0.50;;
27863;SDS011;15980;51.092;13.916;2023-10-31T11:47:25;0.50;;;0.30;;
27863;SDS011;15980;51.092;13.916;2023-10-31T11:57:26;0.30;;;0.20;;
27863;SDS011;15980;51.092;13.916;2023-10-31T12:07:27;4.05;;;1.00;;
27863;SDS011;15980;51.092;13.916;2023-10-31T12:17:27;1.40;;;0.30;;
27863;SDS011;15980;51.092;13.916;2023-10-31T12:27:47;1.17;;;0.60;;
27863;SDS011;15980;51.092;13.916;2023-10-31T12:37:49;0.40;;;0.32;;
27863;SDS011;15980;51.092;13.916;2023-10-31T12:48:00;5.25;;;0.50;;
27863;SDS011;15980;51.092;13.916;2023-10-31T12:58:08;11.98;;;10.75;;
27863;SDS011;15980;51.092;13.916;2023-10-31T13:08:12;1.02;;;0.70;;
27863;SDS011;15980;51.092;13.916;2023-10-31T13:18:14;0.20;;;0.20;;
27863;SDS011;15980;51.092;13.916;2023-10-31T13:28:15;0.70;;;0.50;;
27863;SDS011;15980;51.092;13.916;2023-10-31T13:38:15;2.00;;;1.33;;
27863;SDS011;15980;51.092;13.916;2023-10-31T13:48:15;4.32;;;0.80;;
27863;SDS011;15980;51.092;13.916;2023-10-31T13:58:16;8.57;;;2.97;;
27863;SDS011;15980;51.092;13.916;2023-10-31T14:08:16;4.05;;;1.30;;
27863;SDS011;15980;51.092;13.916;2023-10-31T14:18:16;5.47;;;0.60;;
27863;SDS011;15980;51.092;13.916;2023-10-31T14:28:16;1.40;;;0.70;;
27863;SDS011;15980;51.092;13.916;2023-10-31T14:38:17;0.52;;;0.40;;
27863;SDS011;15980;51.092;13.916;2023-10-31T14:48:17;0.98;;;0.50;;
27863;SDS011;15980;51.092;13.916;2023-10-31T14:58:17;3.40;;;0.57;;
27863;SDS011;15980;51.092;13.916;2023-10-31T15:08:18;2.78;;;0.60;;
27863;SDS011;15980;51.092;13.916;2023-10-31T15:18:18;2.13;;;0.80;;
27863;SDS011;15980;51.092;13.916;2023-10-31T15:28:18;1.33;;;0.60;;
27863;SDS011;15980;51.092;13.916;2023-10-31T15:38:18;1.17;;;0.80;;
27863;SDS011;15980;51.092;13.916;2023-10-31T15:48:19;23.55;;;10.70;;
27863;SDS011;15980;51.092;13.916;2023-10-31T15:58:19;8.70;;;5.28;;
27863;SDS011;15980;51.092;13.916;2023-10-31T16:08:19;3.28;;;2.00;;
27863;SDS011;15980;51.092;13.916;2023-10-31T16:18:20;2.22;;;1.15;;
27863;SDS011;15980;51.092;13.916;2023-10-31T16:28:20;3.92;;;2.35;;
27863;SDS011;15980;51.092;13.916;2023-10-31T16:38:20;2.58;;;1.70;;
27863;SDS011;15980;51.092;13.916;2023-10-31T16:48:21;1.20;;;0.80;;
27863;SDS011;15980;51.092;13.916;2023-10-31T16:58:21;6.32;;;4.28;;
27863;SDS011;15980;51.092;13.916;2023-10-31T17:08:21;6.22;;;4.57;;
27863;SDS011;15980;51.092;13.916;2023-10-31T17:18:22;3.47;;;2.40;;
27863;SDS011;15980;51.092;13.916;2023-10-31T17:28:22;4.95;;;1.30;;
27863;SDS011;15980;51.092;13.916;2023-10-31T17:38:22;1.70;;;1.13;;
27863;SDS011;15980;51.092;13.916;2023-10-31T17:48:23;1.80;;;1.00;;
27863;SDS011;15980;51.092;13.916;2023-10-31T17:58:23;2.15;;;0.68;;
27863;SDS011;15980;51.092;13.916;2023-10-31T18:08:23;2.17;;;1.13;;
27863;SDS011;15980;51.092;13.916;2023-10-31T18:18:23;4.45;;;1.25;;
27863;SDS011;15980;51.092;13.916;2023-10-31T18:28:24;2.92;;;1.05;;
27863;SDS011;15980;51.092;13.916;2023-10-31T18:38:25;3.33;;;1.38;;
27863;SDS011;15980;51.092;13.916;2023-10-31T18:48:25;2.03;;;1.05;;
27863;SDS011;15980;51.092;13.916;2023-10-31T18:58:25;4.32;;;1.25;;
27863;SDS011;15980;51.092;13.916;2023-10-31T19:08:26;2.42;;;1.17;;
27863;SDS011;15980;51.092;13.916;2023-10-31T19:18:26;2.08;;;1.35;;
27863;SDS011;15980;51.092;13.916;2023-10-31T19:28:26;4.55;;;1.42;;
27863;SDS011;15980;51.092;13.916;2023-10-31T19:38:28;7.45;;;1.20;;
27863;SDS011;15980;51.092;13.916;2023-10-31T19:48:28;1.07;;;0.73;;
27863;SDS011;15980;51.092;13.916;2023-10-31T19:58:29;4.35;;;1.20;;
27863;SDS011;15980;51.092;13.916;2023-10-31T20:08:29;3.20;;;1.10;;
27863;SDS011;15980;51.092;13.916;2023-10-31T20:18:29;2.17;;;1.00;;
27863;SDS011;15980;51.092;13.916;2023-10-31T20:28:29;1.67;;;0.90;;
27863;SDS011;15980;51.092;13.916;2023-10-31T20:38:30;3.72;;;1.10;;
27863;SDS011;15980;51.092;13.916;2023-10-31T20:48:30;3.03;;;1.00;;
27863;SDS011;15980;51.092;13.916;2023-10-31T20:58:30;3.03;;;1.13;;
27863;SDS011;15980;51.092;13.916;2023-10-31T21:08:31;3.65;;;1.23;;
27863;SDS011;15980;51.092;13.916;2023-10-31T21:18:31;4.18;;;0.98;;
27863;SDS011;15980;51.092;13.916;2023-10-31T21:28:31;3.58;;;1.00;;
27863;SDS011;15980;51.092;13.916;2023-10-31T21:38:31;2.20;;;1.00;;
27863;SDS011;15980;51.092;13.916;2023-10-31T21:48:32;2.50;;;0.73;;
27863;SDS011;15980;51.092;13.916;2023-10-31T21:58:32;5.57;;;1.10;;
27863;SDS011;15980;51.092;13.916;2023-10-31T22:08:32;2.85;;;0.90;;
27863;SDS011;15980;51.092;13.916;2023-10-31T22:18:33;3.38;;;1.30;;
27863;SDS011;15980;51.092;13.916;2023-10-31T22:28:33;1.23;;;0.90;;
27863;SDS011;15980;51.092;13.916;2023-10-31T22:38:34;1.95;;;1.10;;
27863;SDS011;15980;51.092;13.916;2023-10-31T22:48:35;2.25;;;0.90;;
27863;SDS011;15980;51.092;13.916;2023-10-31T22:58:35;3.10;;;0.90;;
27863;SDS011;15980;51.092;13.916;2023-10-31T23:08:36;2.08;;;1.00;;
27863;SDS011;15980;51.092;13.916;2023-10-31T23:18:36;3.60;;;0.90;;
27863;SDS011;15980;51.092;13.916;2023-10-31T23:28:36;6.90;;;1.33;;
27863;SDS011;15980;51.092;13.916;2023-10-31T23:38:36;1.85;;;1.08;;
27863;SDS011;15980;51.092;13.916;2023-10-31T23:48:37;3.80;;;1.45;;
27863;SDS011;15980;51.092;13.916;2023-10-31T23:58:37;6.82;;;1.23;;
